createdAt,value
2022-08-09T00:01:59.739Z,79
2022-08-09T00:12:03.280Z,79
2022-08-09T00:22:00.535Z,79
2022-08-09T00:32:01.028Z,79
2022-08-09T00:44:08.686Z,80
2022-08-09T00:52:05.081Z,81
2022-08-09T01:02:02.280Z,82
2022-08-09T01:12:03.181Z,84
2022-08-09T01:22:03.971Z,84
2022-08-09T01:32:29.302Z,84
2022-08-09T01:42:11.038Z,85
2022-08-09T01:52:06.946Z,86
2022-08-09T02:02:07.137Z,86
2022-08-09T02:12:08.142Z,86
2022-08-09T02:22:08.321Z,87
2022-08-09T02:32:09.407Z,86
2022-08-09T02:52:10.219Z,89
2022-08-09T03:02:12.090Z,90
2022-08-09T03:12:13.407Z,90
2022-08-09T03:22:19.724Z,91
2022-08-09T03:32:13.235Z,91
2022-08-09T03:52:14.006Z,93
2022-08-09T04:02:14.477Z,93
2022-08-09T04:12:30.263Z,93
2022-08-09T04:22:15.655Z,93
2022-08-09T04:32:16.492Z,94
2022-08-09T04:42:18.541Z,96
2022-08-09T04:52:18.247Z,95
2022-08-09T05:22:33.664Z,95
2022-08-09T05:32:21.496Z,94
2022-08-09T05:42:22.194Z,92
2022-08-09T05:52:24.703Z,89
2022-08-09T06:02:23.608Z,86
2022-08-09T06:12:26.233Z,86
2022-08-09T06:22:26.308Z,84
2022-08-09T06:32:53.708Z,83
2022-08-09T06:52:26.618Z,79
2022-08-09T07:02:29.336Z,76
2022-08-09T07:12:38.137Z,74
2022-08-09T07:22:35.008Z,71
2022-08-09T07:32:31.912Z,70
2022-08-09T07:42:32.636Z,69
2022-08-09T07:52:29.856Z,66
2022-08-09T08:02:30.479Z,68
2022-08-09T08:22:31.550Z,63
2022-08-09T08:32:31.536Z,60
2022-08-09T08:42:32.644Z,61
2022-08-09T09:02:34.265Z,58
2022-08-09T09:12:35.680Z,59
2022-08-09T09:22:35.608Z,57
2022-08-09T09:32:36.027Z,57
2022-08-09T09:52:37.667Z,54
2022-08-09T10:12:43.442Z,54
2022-08-09T10:32:40.438Z,50
2022-08-09T11:03:03.599Z,48
2022-08-09T11:12:42.164Z,46
2022-08-09T11:22:43.286Z,49
2022-08-09T11:32:44.308Z,48
2022-08-09T11:42:44.970Z,46
2022-08-09T11:53:04.528Z,46
2022-08-09T12:02:48.955Z,45
2022-08-09T12:12:46.307Z,45
2022-08-09T12:22:47.039Z,43
2022-08-09T12:32:48.348Z,43
2022-08-09T12:42:50.310Z,43
2022-08-09T12:52:58.471Z,43
2022-08-09T13:32:51.177Z,42
2022-08-09T13:42:52.198Z,42
2022-08-09T14:03:02.433Z,41
2022-08-09T14:12:54.105Z,41
2022-08-09T14:22:54.419Z,41
2022-08-09T14:32:55.124Z,42
2022-08-09T14:52:56.490Z,40
2022-08-09T15:02:58.289Z,40
2022-08-09T15:12:57.863Z,41
2022-08-09T15:22:59.895Z,39
2022-08-09T15:42:58.785Z,40
2022-08-09T15:53:06.464Z,40
2022-08-09T16:03:00.180Z,40
2022-08-09T16:13:01.129Z,41
2022-08-09T16:23:01.453Z,42
2022-08-09T16:33:01.690Z,43
2022-08-09T16:43:02.468Z,43
2022-08-09T17:03:04.209Z,45
2022-08-09T17:13:06.120Z,46
2022-08-09T17:23:05.069Z,46
2022-08-09T17:33:22.124Z,47
2022-08-09T17:53:10.536Z,48
2022-08-09T18:03:07.818Z,48
2022-08-09T18:13:40.377Z,49
2022-08-09T18:23:09.314Z,49
2022-08-09T18:33:12.725Z,50
2022-08-09T18:43:10.571Z,50
2022-08-09T18:53:13.466Z,51
2022-08-09T19:03:11.470Z,51
2022-08-09T19:13:20.316Z,52
2022-08-09T19:23:16.443Z,52
2022-08-09T19:33:19.238Z,53
2022-08-09T19:53:13.222Z,55
2022-08-09T20:03:25.070Z,55
2022-08-09T20:23:14.643Z,58
2022-08-09T20:33:14.907Z,58
2022-08-09T20:43:18.293Z,59
2022-08-09T20:53:35.088Z,60
2022-08-09T21:13:17.239Z,62
2022-08-09T21:23:17.891Z,62
2022-08-09T21:33:18.720Z,63
2022-08-09T21:43:21.668Z,64
2022-08-09T21:53:23.979Z,64
2022-08-09T22:03:25.343Z,65
2022-08-09T22:13:20.679Z,66
2022-08-09T22:33:21.800Z,67
2022-08-09T22:44:00.958Z,68
2022-08-09T22:53:23.259Z,70
2022-08-09T23:03:31.356Z,71
2022-08-09T23:13:24.522Z,72
2022-08-09T23:23:25.665Z,73
2022-08-09T23:33:25.843Z,74
2022-08-09T23:43:26.761Z,75
2022-08-09T23:53:28.308Z,76
